createdAt,value
2022-12-20T00:01:36.138Z,55.47
2022-12-20T00:04:06.022Z,52.90
2022-12-20T00:06:35.881Z,59.83
2022-12-20T00:09:05.450Z,59.83
2022-12-20T00:11:32.976Z,50.22
2022-12-20T00:14:00.312Z,57.05
2022-12-20T00:16:29.458Z,60.30
2022-12-20T00:19:02.537Z,59.17
2022-12-20T00:21:32.273Z,55.08
2022-12-20T00:24:00.183Z,56.53
2022-12-20T00:26:31.121Z,47.55
2022-12-20T00:28:58.552Z,62.22
2022-12-20T00:31:28.323Z,38.20
2022-12-20T00:33:59.623Z,52.15
2022-12-20T00:36:29.149Z,51.40
2022-12-20T00:38:57.426Z,39.28
2022-12-20T00:41:27.321Z,49.97
2022-12-20T00:43:54.689Z,42.50
2022-12-20T00:46:23.685Z,36.92
2022-12-20T00:48:51.869Z,50.88
2022-12-20T00:51:23.214Z,46.03
2022-12-20T00:53:50.348Z,52.28
2022-12-20T00:56:18.761Z,47.05
2022-12-20T00:58:46.105Z,45.75
2022-12-20T01:01:23.617Z,48.67
2022-12-20T01:03:52.043Z,46.05
2022-12-20T01:06:20.222Z,46.75
2022-12-20T01:08:47.379Z,49.35
2022-12-20T01:11:22.216Z,44.03
2022-12-20T01:13:52.738Z,53.15
2022-12-20T01:16:27.267Z,47.10
2022-12-20T01:18:54.871Z,53.95
2022-12-20T01:21:23.844Z,44.08
2022-12-20T01:23:51.336Z,48.63
2022-12-20T01:26:22.416Z,46.50
2022-12-20T01:28:53.602Z,54.20
2022-12-20T01:31:20.988Z,61.85
2022-12-20T01:33:49.348Z,53.13
2022-12-20T01:36:18.907Z,56.90
2022-12-20T01:38:47.184Z,52.05
2022-12-20T01:41:23.408Z,59.10
2022-12-20T01:43:52.261Z,50.92
2022-12-20T01:46:21.613Z,54.38
2022-12-20T01:49:01.873Z,54.78
2022-12-20T01:51:32.246Z,46.90
2022-12-20T01:54:07.838Z,56.45
2022-12-20T01:56:36.435Z,49.28
2022-12-20T01:59:04.009Z,47.83
2022-12-20T02:01:31.278Z,55.25
2022-12-20T02:04:00.203Z,53.67
2022-12-20T02:06:28.147Z,55.40
2022-12-20T02:08:59.548Z,60.17
2022-12-20T02:11:59.334Z,60.85
2022-12-20T02:14:29.513Z,62.05
2022-12-20T02:17:32.729Z,44.85
2022-12-20T02:20:31.959Z,46.85
2022-12-20T02:23:20.062Z,53.95
2022-12-20T02:26:30.378Z,53.45
2022-12-20T02:29:07.863Z,58.20
2022-12-20T02:31:50.548Z,58.97
2022-12-20T02:34:18.876Z,61.47
2022-12-20T02:36:46.006Z,57.05
2022-12-20T02:39:17.361Z,57.78
2022-12-20T02:41:51.056Z,58.97
2022-12-20T02:44:39.570Z,55.10
2022-12-20T02:47:14.217Z,61.80
2022-12-20T02:49:46.900Z,65.43
2022-12-20T02:52:15.108Z,50.25
2022-12-20T02:54:42.293Z,63.47
2022-12-20T02:57:20.596Z,58.47
2022-12-20T03:00:08.925Z,60.05
2022-12-20T03:02:55.524Z,53.03
2022-12-20T03:05:25.866Z,51.55
2022-12-20T03:07:53.574Z,59.70
2022-12-20T03:10:22.269Z,53.83
2022-12-20T03:12:49.378Z,54.28
2022-12-20T03:15:17.223Z,46.00
2022-12-20T03:17:44.485Z,57.50
2022-12-20T03:20:11.796Z,47.28
2022-12-20T03:22:39.470Z,63.13
2022-12-20T03:25:07.415Z,55.58
2022-12-20T03:27:34.856Z,53.63
2022-12-20T03:30:02.123Z,59.55
2022-12-20T03:32:29.485Z,60.42
2022-12-20T03:34:56.993Z,49.80
2022-12-20T03:37:24.251Z,60.78
2022-12-20T03:39:51.450Z,58.50
2022-12-20T03:42:18.825Z,53.03
2022-12-20T03:44:46.038Z,57.20
2022-12-20T03:47:13.637Z,68.15
2022-12-20T03:49:41.101Z,62.67
2022-12-20T03:52:08.854Z,56.20
2022-12-20T03:54:36.091Z,59.17
2022-12-20T03:57:03.378Z,64.22
2022-12-20T03:59:30.747Z,57.80
2022-12-20T04:01:58.003Z,59.40
2022-12-20T04:04:25.338Z,66.97
2022-12-20T04:06:52.684Z,62.60
2022-12-20T04:09:20.029Z,73.07
2022-12-20T04:11:47.190Z,60.90
2022-12-20T04:14:14.275Z,66.45
2022-12-20T04:16:41.615Z,74.80
2022-12-20T04:19:08.786Z,67.82
2022-12-20T04:21:36.760Z,60.35
2022-12-20T04:24:04.886Z,64.32
2022-12-20T04:26:32.362Z,63.90
2022-12-20T04:28:59.483Z,58.00
2022-12-20T04:31:27.006Z,64.20
2022-12-20T04:33:54.261Z,54.53
2022-12-20T04:36:21.636Z,60.90
2022-12-20T04:38:48.849Z,56.35
2022-12-20T04:41:23.197Z,59.38
2022-12-20T04:43:52.107Z,63.53
2022-12-20T04:46:19.905Z,66.82
2022-12-20T04:48:57.158Z,70.88
2022-12-20T04:51:26.042Z,60.03
2022-12-20T04:53:53.228Z,58.67
2022-12-20T04:56:23.902Z,62.45
2022-12-20T04:58:53.288Z,62.53
2022-12-20T05:01:21.256Z,58.33
2022-12-20T05:03:49.729Z,59.25
2022-12-20T05:06:17.743Z,73.60
2022-12-20T05:08:45.402Z,61.47
2022-12-20T05:11:13.184Z,56.25
2022-12-20T05:13:40.807Z,55.55
2022-12-20T05:16:08.429Z,64.35
2022-12-20T05:18:36.112Z,59.75
2022-12-20T05:21:22.481Z,59.85
2022-12-20T05:24:08.577Z,53.55
2022-12-20T05:26:38.197Z,69.15
2022-12-20T05:29:06.197Z,64.07
2022-12-20T05:31:33.913Z,69.97
2022-12-20T05:34:01.569Z,69.65
2022-12-20T05:36:28.768Z,65.18
2022-12-20T05:39:03.383Z,56.25
2022-12-20T05:41:31.308Z,59.97
2022-12-20T05:43:58.706Z,55.78
2022-12-20T05:46:26.017Z,52.60
2022-12-20T05:48:53.332Z,64.57
2022-12-20T05:51:20.440Z,60.45
2022-12-20T05:53:47.604Z,71.15
2022-12-20T05:56:14.876Z,58.25
2022-12-20T05:58:42.259Z,67.78
2022-12-20T06:01:10.798Z,77.13
2022-12-20T06:03:39.605Z,71.57
2022-12-20T06:06:13.900Z,66.72
2022-12-20T06:08:42.096Z,66.10
2022-12-20T06:11:09.290Z,64.25
2022-12-20T06:13:36.643Z,56.35
2022-12-20T06:16:04.296Z,64.43
2022-12-20T06:18:31.393Z,78.22
2022-12-20T06:20:58.471Z,63.72
2022-12-20T06:23:26.227Z,65.45
2022-12-20T06:25:53.868Z,66.53
2022-12-20T06:28:22.441Z,63.05
2022-12-20T06:30:57.223Z,58.75
2022-12-20T06:33:25.420Z,67.93
2022-12-20T06:35:53.371Z,67.00
2022-12-20T06:38:20.680Z,56.95
2022-12-20T06:40:47.933Z,67.53
2022-12-20T06:43:15.209Z,66.53
2022-12-20T06:45:42.869Z,62.33
2022-12-20T06:48:10.663Z,56.42
2022-12-20T06:50:41.222Z,72.78
2022-12-20T06:53:08.523Z,67.28
2022-12-20T06:55:35.735Z,64.13
2022-12-20T06:58:04.442Z,70.38
2022-12-20T07:00:32.126Z,62.28
2022-12-20T07:02:59.982Z,79.43
2022-12-20T07:05:27.801Z,71.05
2022-12-20T07:07:55.084Z,73.35
2022-12-20T07:10:22.450Z,72.45
2022-12-20T07:12:55.724Z,70.85
2022-12-20T07:15:23.216Z,56.92
2022-12-20T07:17:50.345Z,89.13
2022-12-20T07:20:18.078Z,72.88
2022-12-20T07:22:48.249Z,69.53
2022-12-20T07:25:15.432Z,64.22
2022-12-20T07:27:42.566Z,58.20
2022-12-20T07:30:11.155Z,71.65
2022-12-20T07:32:38.385Z,66.50
2022-12-20T07:35:06.104Z,53.83
2022-12-20T07:37:33.282Z,70.10
2022-12-20T07:40:00.594Z,61.67
2022-12-20T07:42:35.567Z,80.70
2022-12-20T07:45:05.651Z,57.30
2022-12-20T07:47:36.217Z,61.20
2022-12-20T07:50:04.170Z,56.67
2022-12-20T07:52:34.738Z,48.33
2022-12-20T07:55:06.997Z,72.38
2022-12-20T07:57:51.633Z,70.35
2022-12-20T08:00:19.113Z,59.47
2022-12-20T08:02:53.338Z,59.58
2022-12-20T08:05:21.958Z,59.57
2022-12-20T08:07:53.482Z,69.45
2022-12-20T08:10:24.219Z,68.32
2022-12-20T08:12:52.077Z,65.75
2022-12-20T08:15:21.771Z,76.13
2022-12-20T08:17:49.673Z,61.63
2022-12-20T08:20:18.214Z,66.85
2022-12-20T08:22:45.757Z,59.75
2022-12-20T08:25:15.599Z,61.38
2022-12-20T08:27:42.754Z,63.33
2022-12-20T08:30:11.054Z,68.05
2022-12-20T08:32:38.783Z,63.95
2022-12-20T08:35:06.986Z,62.00
2022-12-20T08:37:34.462Z,58.72
2022-12-20T08:40:01.774Z,63.50
2022-12-20T08:42:30.156Z,67.63
2022-12-20T08:44:57.366Z,67.20
2022-12-20T08:47:24.608Z,60.45
2022-12-20T08:49:51.729Z,55.75
2022-12-20T08:52:18.842Z,56.78
2022-12-20T08:54:46.468Z,65.07
2022-12-20T08:57:13.910Z,65.75
2022-12-20T08:59:43.739Z,57.55
2022-12-20T09:02:11.078Z,57.17
2022-12-20T09:04:39.109Z,66.88
2022-12-20T09:07:06.209Z,66.70
2022-12-20T09:09:33.214Z,63.08
2022-12-20T09:12:00.297Z,64.45
2022-12-20T09:14:28.178Z,64.75
2022-12-20T09:16:55.330Z,62.85
2022-12-20T09:19:22.443Z,58.70
2022-12-20T09:21:49.563Z,60.42
2022-12-20T09:24:17.639Z,64.10
2022-12-20T09:26:45.705Z,57.15
2022-12-20T09:29:22.993Z,60.40
2022-12-20T09:31:53.343Z,70.20
2022-12-20T09:34:20.532Z,71.50
2022-12-20T09:36:47.968Z,54.53
2022-12-20T09:39:14.906Z,63.08
2022-12-20T09:41:44.283Z,57.42
2022-12-20T09:44:25.086Z,51.70
2022-12-20T09:47:10.509Z,66.15
2022-12-20T09:49:42.329Z,58.95
2022-12-20T09:52:39.235Z,62.10
2022-12-20T09:55:46.093Z,66.47
2022-12-20T09:58:45.983Z,69.72
2022-12-20T10:01:24.902Z,58.80
2022-12-20T10:03:54.628Z,58.33
2022-12-20T10:06:29.248Z,58.85
2022-12-20T10:09:05.935Z,55.83
2022-12-20T10:11:58.135Z,59.63
2022-12-20T10:14:38.439Z,55.60
2022-12-20T10:17:19.523Z,66.25
2022-12-20T10:19:55.309Z,53.28
2022-12-20T10:22:44.284Z,56.75
2022-12-20T10:25:23.251Z,49.65
2022-12-20T10:27:53.869Z,66.25
2022-12-20T10:30:24.872Z,58.53
2022-12-20T10:32:55.178Z,46.35
2022-12-20T10:35:25.759Z,54.20
2022-12-20T10:38:09.331Z,61.03
2022-12-20T10:41:10.113Z,54.63
2022-12-20T10:43:28.786Z,50.35
2022-12-20T10:46:00.941Z,46.65
2022-12-20T10:48:34.452Z,62.58
2022-12-20T10:51:16.784Z,52.50
2022-12-20T10:53:59.685Z,50.40
2022-12-20T10:56:39.307Z,536.55
2022-12-20T10:59:18.547Z,1195.90
2022-12-20T11:01:48.262Z,1999.90
2022-12-20T11:04:31.844Z,714.78
2022-12-20T11:07:22.487Z,171.52
2022-12-20T11:09:55.620Z,125.00
2022-12-20T11:12:23.257Z,99.53
2022-12-20T11:14:50.777Z,94.82
2022-12-20T11:17:49.688Z,89.35
2022-12-20T11:20:41.575Z,120.68
2022-12-20T11:23:20.633Z,128.07
2022-12-20T11:26:05.778Z,741.05
2022-12-20T11:28:57.296Z,156.85
2022-12-20T11:31:36.239Z,95.85
2022-12-20T11:34:18.007Z,75.07
2022-12-20T11:37:03.222Z,66.15
2022-12-20T11:39:43.708Z,162.23
2022-12-20T11:42:59.011Z,409.80
2022-12-20T11:45:57.626Z,1391.43
2022-12-20T11:48:46.416Z,1018.35
2022-12-20T11:51:26.969Z,462.98
2022-12-20T11:54:08.724Z,559.83
2022-12-20T11:56:43.282Z,678.22
2022-12-20T11:59:30.295Z,760.03
2022-12-20T12:02:12.789Z,474.13
2022-12-20T12:04:56.276Z,312.80
2022-12-20T12:07:29.099Z,475.85
2022-12-20T12:10:13.365Z,418.30
2022-12-20T12:12:45.550Z,339.25
2022-12-20T12:15:22.857Z,741.50
2022-12-20T12:18:05.509Z,593.00
2022-12-20T12:20:46.987Z,452.08
2022-12-20T12:23:23.845Z,371.73
2022-12-20T12:25:50.979Z,210.90
2022-12-20T12:28:20.219Z,345.60
2022-12-20T12:31:04.796Z,484.02
2022-12-20T12:33:40.852Z,205.40
2022-12-20T12:36:35.809Z,151.95
2022-12-20T12:39:38.169Z,69.05
2022-12-20T12:42:18.914Z,73.70
2022-12-20T12:45:04.075Z,52.63
2022-12-20T12:47:42.370Z,40.80
2022-12-20T12:50:25.984Z,39.47
2022-12-20T12:53:00.906Z,35.08
2022-12-20T12:55:41.646Z,34.90
2022-12-20T12:58:48.392Z,30.38
2022-12-20T13:01:54.014Z,34.95
2022-12-20T13:04:21.458Z,29.57
2022-12-20T13:06:49.024Z,32.00
2022-12-20T13:09:31.083Z,31.80
2022-12-20T13:12:18.943Z,29.88
2022-12-20T13:14:46.217Z,29.35
2022-12-20T13:17:25.887Z,25.17
2022-12-20T13:19:55.765Z,29.60
2022-12-20T13:22:26.746Z,26.65
2022-12-20T13:24:57.780Z,28.45
2022-12-20T13:27:39.352Z,28.02
2022-12-20T13:30:13.509Z,25.95
2022-12-20T13:33:03.092Z,23.88
2022-12-20T13:35:51.745Z,27.48
2022-12-20T13:38:39.137Z,23.52
2022-12-20T13:41:20.619Z,25.67
2022-12-20T13:43:49.775Z,28.02
2022-12-20T13:46:41.162Z,20.77
2022-12-20T13:49:12.408Z,25.48
2022-12-20T13:51:39.922Z,21.10
2022-12-20T13:54:25.204Z,26.70
2022-12-20T13:56:55.304Z,28.15
2022-12-20T13:59:29.515Z,23.08
2022-12-20T14:01:59.665Z,33.15
2022-12-20T14:04:41.977Z,28.02
2022-12-20T14:07:12.559Z,24.48
2022-12-20T14:09:39.882Z,23.67
2022-12-20T14:12:16.670Z,28.00
2022-12-20T14:14:48.446Z,20.15
2022-12-20T14:17:34.184Z,18.15
2022-12-20T14:20:12.652Z,27.00
2022-12-20T14:22:51.532Z,21.25
2022-12-20T14:25:48.961Z,24.55
2022-12-20T14:28:34.065Z,21.00
2022-12-20T14:31:02.494Z,17.33
2022-12-20T14:33:37.655Z,19.75
2022-12-20T14:36:16.812Z,19.25
2022-12-20T14:38:54.425Z,14.15
2022-12-20T14:41:38.502Z,16.73
2022-12-20T14:44:08.383Z,17.27
2022-12-20T14:46:43.593Z,21.13
2022-12-20T14:49:23.061Z,20.98
2022-12-20T14:51:51.444Z,16.30
2022-12-20T14:57:39.042Z,22.98
2022-12-20T15:00:28.194Z,22.98
2022-12-20T15:03:03.339Z,27.45
2022-12-20T15:05:37.897Z,27.33
2022-12-20T15:08:11.095Z,27.60
2022-12-20T15:10:38.738Z,20.77
2022-12-20T15:13:14.692Z,17.65
2022-12-20T15:15:42.362Z,16.38
2022-12-20T15:18:12.803Z,21.25
2022-12-20T15:20:41.978Z,16.45
2022-12-20T15:23:20.788Z,15.98
2022-12-20T15:25:48.775Z,17.83
2022-12-20T15:28:25.477Z,17.83
2022-12-20T15:30:53.809Z,16.80
2022-12-20T15:33:27.233Z,19.63
2022-12-20T15:35:54.670Z,17.40
2022-12-20T15:38:40.632Z,16.38
2022-12-20T15:41:27.448Z,17.33
2022-12-20T15:43:57.702Z,21.83
2022-12-20T15:46:25.240Z,23.27
2022-12-20T15:48:56.297Z,18.70
2022-12-20T15:51:33.727Z,16.85
2022-12-20T15:54:03.175Z,19.52
2022-12-20T15:56:30.985Z,25.05
2022-12-20T15:58:58.130Z,15.85
2022-12-20T16:01:33.258Z,21.38
2022-12-20T16:04:17.200Z,16.60
2022-12-20T16:06:45.405Z,18.92
2022-12-20T16:09:12.789Z,18.00
2022-12-20T16:11:40.812Z,16.52
2022-12-20T16:14:13.960Z,17.30
2022-12-20T16:16:41.133Z,19.15
2022-12-20T16:19:08.665Z,14.55
2022-12-20T16:21:41.931Z,18.88
2022-12-20T16:24:12.970Z,18.02
2022-12-20T16:26:40.180Z,23.67
2022-12-20T16:29:08.371Z,27.70
2022-12-20T16:31:38.203Z,20.15
2022-12-20T16:34:10.565Z,21.35
2022-12-20T16:36:38.482Z,19.48
2022-12-20T16:39:05.738Z,18.02
2022-12-20T16:41:34.232Z,18.27
2022-12-20T16:44:03.614Z,16.45
2022-12-20T16:46:32.590Z,16.00
2022-12-20T16:49:01.008Z,15.23
2022-12-20T16:51:48.538Z,16.85
2022-12-20T16:54:21.776Z,11.48
2022-12-20T16:56:56.225Z,16.73
2022-12-20T16:59:26.480Z,15.82
2022-12-20T17:01:56.063Z,19.05
2022-12-20T17:04:24.680Z,21.25
2022-12-20T17:06:51.825Z,16.60
2022-12-20T17:09:20.406Z,17.90
2022-12-20T17:11:50.421Z,22.92
2022-12-20T17:14:20.062Z,18.73
2022-12-20T17:16:47.580Z,18.30
2022-12-20T17:19:14.933Z,18.00
2022-12-20T17:24:30.812Z,16.45
2022-12-20T17:26:58.052Z,16.10
2022-12-20T17:29:25.349Z,18.83
2022-12-20T17:31:52.775Z,14.60
2022-12-20T17:34:23.168Z,16.15
2022-12-20T17:36:52.428Z,14.50
2022-12-20T17:39:19.639Z,16.35
2022-12-20T17:41:47.630Z,15.48
2022-12-20T17:44:20.809Z,17.48
2022-12-20T17:46:50.877Z,19.17
2022-12-20T17:49:18.310Z,23.00
2022-12-20T17:51:46.248Z,15.80
2022-12-20T17:54:25.394Z,13.55
2022-12-20T17:56:53.905Z,20.08
2022-12-20T17:59:22.585Z,17.20
2022-12-20T18:01:50.037Z,15.70
2022-12-20T18:04:17.583Z,19.42
2022-12-20T18:06:46.594Z,14.45
2022-12-20T18:09:19.799Z,19.33
2022-12-20T18:11:49.690Z,16.55
2022-12-20T18:14:17.465Z,15.80
2022-12-20T18:16:44.827Z,11.85
2022-12-20T18:19:19.400Z,11.93
2022-12-20T18:21:48.052Z,21.83
2022-12-20T18:24:16.387Z,20.23
2022-12-20T18:26:45.134Z,14.57
2022-12-20T18:29:12.456Z,14.10
2022-12-20T18:31:40.248Z,16.15
2022-12-20T18:34:07.715Z,13.90
2022-12-20T18:36:37.623Z,15.32
2022-12-20T18:39:06.812Z,12.70
2022-12-20T18:41:35.035Z,14.88
2022-12-20T18:44:04.807Z,18.48
2022-12-20T18:46:33.374Z,13.88
2022-12-20T18:49:01.780Z,12.90
2022-12-20T18:51:38.371Z,18.98
2022-12-20T18:54:08.247Z,12.13
2022-12-20T18:56:37.877Z,15.75
2022-12-20T18:59:14.152Z,12.82
2022-12-20T19:01:43.183Z,11.60
2022-12-20T19:04:11.303Z,19.65
2022-12-20T19:06:38.881Z,16.25
2022-12-20T19:09:12.223Z,22.90
2022-12-20T19:11:40.450Z,16.00
2022-12-20T19:14:08.537Z,20.50
2022-12-20T19:16:36.359Z,18.52
2022-12-20T19:19:04.506Z,13.45
2022-12-20T19:21:35.871Z,15.55
2022-12-20T19:24:07.598Z,25.90
2022-12-20T19:26:36.838Z,14.07
2022-12-20T19:29:05.495Z,14.07
2022-12-20T19:31:34.594Z,15.10
2022-12-20T19:34:04.523Z,31.13
2022-12-20T19:36:38.118Z,45.78
2022-12-20T19:39:07.935Z,38.47
2022-12-20T19:41:35.983Z,75.35
2022-12-20T19:44:04.577Z,38.30
2022-12-20T19:46:32.089Z,31.23
2022-12-20T19:49:00.489Z,26.45
2022-12-20T19:51:29.382Z,27.80
2022-12-20T19:53:58.407Z,27.88
2022-12-20T19:56:31.830Z,28.52
2022-12-20T19:58:59.042Z,17.92
2022-12-20T20:01:27.935Z,17.98
2022-12-20T20:03:58.114Z,18.63
2022-12-20T20:06:27.235Z,20.23
2022-12-20T20:08:57.793Z,22.55
2022-12-20T20:11:25.730Z,17.92
2022-12-20T20:13:53.046Z,21.70
2022-12-20T20:16:22.888Z,25.17
2022-12-20T20:18:50.955Z,26.00
2022-12-20T20:21:22.088Z,19.20
2022-12-20T20:23:53.907Z,20.98
2022-12-20T20:26:24.085Z,19.45
2022-12-20T20:28:51.650Z,21.20
2022-12-20T20:31:20.457Z,23.15
2022-12-20T20:33:48.178Z,34.97
2022-12-20T20:36:21.744Z,15.95
2022-12-20T20:38:49.876Z,19.10
2022-12-20T20:41:17.716Z,18.88
2022-12-20T20:43:45.080Z,21.00
2022-12-20T20:46:14.492Z,19.83
2022-12-20T20:48:43.245Z,28.83
2022-12-20T20:51:11.502Z,23.27
2022-12-20T20:53:39.579Z,18.70
2022-12-20T20:56:10.043Z,26.08
2022-12-20T20:58:38.483Z,24.13
2022-12-20T21:01:12.119Z,20.92
2022-12-20T21:03:40.555Z,26.05
2022-12-20T21:08:56.080Z,22.92
2022-12-20T21:11:23.841Z,22.13
2022-12-20T21:13:51.122Z,32.90
2022-12-20T21:16:22.451Z,22.42
2022-12-20T21:18:54.453Z,34.45
2022-12-20T21:21:23.134Z,31.48
2022-12-20T21:23:50.739Z,25.30
2022-12-20T21:26:19.979Z,24.80
2022-12-20T21:31:19.997Z,26.75
2022-12-20T21:33:47.464Z,26.95
2022-12-20T21:36:17.390Z,61.40
2022-12-20T21:38:50.447Z,132.15
2022-12-20T21:41:19.228Z,59.08
2022-12-20T21:43:46.833Z,40.58
2022-12-20T21:46:14.118Z,30.15
2022-12-20T21:48:43.321Z,38.20
2022-12-20T21:51:15.532Z,53.60
2022-12-20T21:53:50.411Z,87.35
2022-12-20T21:56:19.277Z,43.35
2022-12-20T21:58:47.271Z,145.75
2022-12-20T22:01:18.652Z,146.77
2022-12-20T22:03:55.552Z,40.00
2022-12-20T22:06:23.202Z,62.72
2022-12-20T22:08:50.615Z,51.08
2022-12-20T22:11:18.831Z,35.58
2022-12-20T22:13:47.435Z,42.65
2022-12-20T22:16:17.538Z,36.97
2022-12-20T22:18:48.537Z,86.45
2022-12-20T22:21:17.102Z,40.28
2022-12-20T22:23:44.380Z,66.28
2022-12-20T22:26:15.797Z,42.85
2022-12-20T22:28:51.487Z,60.33
2022-12-20T22:31:19.820Z,215.00
2022-12-20T22:33:47.884Z,58.33
2022-12-20T22:36:16.267Z,40.65
2022-12-20T22:38:44.025Z,47.95
2022-12-20T22:41:26.637Z,43.78
2022-12-20T22:43:54.527Z,49.78
2022-12-20T22:49:06.854Z,49.03
2022-12-20T22:51:36.877Z,51.33
2022-12-20T22:54:04.046Z,48.78
2022-12-20T22:56:31.139Z,55.20
2022-12-20T22:58:58.290Z,65.75
2022-12-20T23:01:25.395Z,50.00
2022-12-20T23:03:52.660Z,67.97
2022-12-20T23:06:21.205Z,43.30
2022-12-20T23:08:49.226Z,44.30
2022-12-20T23:11:41.553Z,48.67
2022-12-20T23:14:33.941Z,59.85
2022-12-20T23:17:01.692Z,49.63
2022-12-20T23:19:49.447Z,52.03
2022-12-20T23:22:35.173Z,49.40
2022-12-20T23:27:29.303Z,45.30
2022-12-20T23:29:56.426Z,90.43
2022-12-20T23:32:24.293Z,48.42
2022-12-20T23:34:51.652Z,44.10
2022-12-20T23:37:18.972Z,84.90
2022-12-20T23:39:46.117Z,149.25
2022-12-20T23:42:13.223Z,52.70
2022-12-20T23:44:40.322Z,46.47
2022-12-20T23:47:07.563Z,91.28
2022-12-20T23:49:34.810Z,49.65
2022-12-20T23:52:01.868Z,98.25
2022-12-20T23:54:28.999Z,59.78
2022-12-20T23:56:56.389Z,283.85
2022-12-20T23:59:24.856Z,59.85
